Date,TemperatureHighF,TemperatureAvgF,TemperatureLowF,DewpointHighF,DewpointAvgF,DewpointLowF,HumidityHigh,HumidityAvg,HumidityLow,PressureMaxIn,PressureMinIn,WindSpeedMaxMPH,WindSpeedAvgMPH,GustSpeedMaxMPH,PrecipitationSumIn
2013-11-1,81.5,62.2,54.1,46.8,22.9,-1.2,58,29,10,29.59,29.41,7,1,14,0.25
2013-11-2,75.2,53.9,44.2,14.8,-0.9,-8.8,14,10,10,29.77,29.55,6,1,14,0.00
2013-11-3,65.7,46.5,36.7,7.5,-4.8,-14.7,18,11,10,30.30,29.76,6,1,16,0.00
2013-11-4,47.1,36.6,29.3,-6.6,-14.7,-20.4,10,10,10,30.47,29.49,4,0,8,0.00
2013-11-5,51.8,42.8,34.2,5.0,-8.7,-16.6,17,11,10,29.96,29.48,3,0,7,0.00
2013-11-6,75.4,54.7,45.9,18.2,7.9,-1.7,30,16,10,29.79,29.38,5,0,55,0.00
2013-11-7,57.7,50.9,36.3,30.7,5.0,-15.1,39,17,10,29.44,29.24,7,1,17,0.09
2013-11-8,58.5,39.9,34.2,2.1,-12.2,-16.6,10,10,10,29.67,29.44,6,1,13,0.01
2013-11-9,64.8,42.0,32.4,6.8,-10.6,-18.0,10,10,10,29.67,28.95,4,1,9,0.00
2013-11-10,67.8,47.6,38.1,9.2,-6.3,-13.6,10,10,10,29.61,28.94,7,1,14,0.00
2013-11-11,62.4,44.8,34.3,5.2,-8.4,-16.5,10,10,10,29.65,29.36,3,0,8,0.00
2013-11-12,48.0,37.1,27.5,-5.9,-14.4,-21.8,10,10,10,29.75,29.35,6,1,21,0.00
2013-11-13,58.5,32.0,25.7,2.0,-18.3,-24.4,10,10,10,29.83,29.70,5,1,11,0.00
2013-11-14,62.2,40.0,27.3,5.0,-12.1,-22.0,10,10,10,29.70,29.56,4,1,10,0.00
2013-11-15,69.3,47.9,38.8,10.3,-6.0,-13.7,10,10,10,29.62,29.52,4,0,7,0.00
2013-11-16,48.4,47.8,46.6,-5.6,-6.1,-7.0,10,10,10,29.60,29.59,2,1,3,0.00
2013-11-17,62.1,57.8,56.1,36.6,27.1,17.2,44,32,18,28.94,28.63,3,0,9,0.08
2013-11-18,72.3,54.3,45.1,37.4,4.3,-8.4,44,15,10,29.89,28.63,9,1,16,0.07
2013-11-19,53.4,40.2,32.2,-1.9,-12.0,-19.6,10,10,10,30.30,29.88,7,1,14,0.00
2013-11-20,54.0,35.1,29.1,-2.0,-15.9,-20.6,10,10,10,30.45,30.28,5,1,9,0.00
2013-11-21,48.7,38.4,30.7,-3.8,-11.2,-18.9,18,11,10,30.46,30.26,2,0,4,0.00
2013-11-22,58.6,49.5,41.5,25.8,5.5,-5.5,33,17,10,30.27,29.96,4,0,12,0.00
2013-11-23,50.2,39.1,27.7,-0.4,-12.6,-21.7,12,10,10,30.14,29.98,7,1,13,0.00
2013-11-24,34.9,23.8,18.5,-16.1,-24.8,-29.1,10,10,10,30.40,30.14,8,1,17,0.04
2013-11-25,43.2,26.1,16.9,-9.8,-22.9,-30.1,10,10,10,30.42,30.19,3,0,7,0.00
2013-11-26,34.3,32.9,32.2,13.1,-3.2,-19.0,43,24,10,30.19,29.57,3,0,10,0.00
2013-11-27,36.3,32.5,24.4,15.7,-0.6,-24.2,45,28,10,29.95,29.49,7,1,14,0.00
2013-11-28,40.8,28.6,21.9,-11.5,-21.0,-26.2,10,10,10,30.35,29.95,5,1,12,0.00
2013-11-29,47.7,30.9,25.3,-6.3,-19.2,-23.5,10,10,10,30.59,30.34,6,1,13,0.00
2013-11-30,35.8,28.2,23.4,-15.4,-21.3,-25.1,10,10,10,30.59,30.24,2,0,6,0.00